Black Eagle — WDJJ — position and weather

sailwx.info

Track history (hours):
 
Tides and Currents Weather Stations Pressure Air Temp Water Temp Dewpoint Dewpoint Depression Visibility Wind Speed Wind Dir Waves Ship Positions

Black Eagle

Owner: Sealift Inc., Oyster Bay, NY. More information available from US FCC via Universal Licensing System and Coast Guard Vessel Documentation Center.

Last reported at 2016-Jul-13 04:27 UTC. Time now 2016-Jul-28 14:36 UTC.
Position N 31°03' E 032°19'.
Warning: this ship's position is 15 days out of date.

Length 190 m; draft 10 m.

Type: Military. MMSI: 369542000.

Date/timePositionNaut miles runAvg speedWind from/ knotsBaromVisibWave heightAir tempDewpointWater temp
2016-Jul-13 04:27N 31°03' E 032°19'7 8.0
2016-Jul-13 03:33N 31°10' E 032°20'9 8.6
2016-Jul-13 02:27N 31°19' E 032°22'5 5.9
2016-Jul-13 01:33N 31°24' E 032°21'4 3.7
2016-Jul-13 00:26N 31°26' E 032°16'1 0.6
2016-Jul-12 23:25N 31°26' E 032°15'2 2.9
2016-Jul-12 22:33N 31°24' E 032°13'2 1.9
2016-Jul-12 21:33N 31°26' E 032°13'1 1.2
2016-Jul-12 20:29N 31°26' E 032°15'1 1.3
2016-Jul-12 19:30N 31°25' E 032°16'4 4.0
2016-Jul-12 18:33N 31°24' E 032°20'2 1.6
2016-Jul-12 17:15N 31°21' E 032°20'0 0.0
2016-Jul-12 16:09N 31°21' E 032°20'0 0.0
2016-Jul-12 15:33N 31°21' E 032°20'0 0.0
2016-Jul-12 14:33N 31°21' E 032°20'0 0.0
2016-Jul-12 13:33N 31°21' E 032°20'0 0.0
2016-Jul-12 12:33N 31°21' E 032°20'0 0.1
2016-Jul-12 11:33N 31°22' E 032°20'7 6.8
2016-Jul-12 10:27N 31°28' E 032°16'910.6
2016-Jul-12 09:33N 31°35' E 032°08'7 6.8
2016-Jul-12 08:33N 31°40' E 032°03'1313.1
2016-Jul-12 07:33N 31°47' E 031°50'2115.2
2016-Jul-12 06:09N 31°52' E 031°25'2012.0
2016-Jul-12 04:27N 31°58' E 031°02'13414.7
2016-Jul-11 19:22N 32°35' E 028°30'61814.8
2016-Jul-10 01:33N 35°30' E 016°35'1615.2
2016-Jul-10 00:31N 35°35' E 016°17'1515.1
2016-Jul-09 23:33N 35°39' E 015°59'1515.3
2016-Jul-09 22:33N 35°44' E 015°42'1515.4
2016-Jul-09 21:33N 35°50' E 015°25'1515.2
2016-Jul-09 20:33N 35°60' E 015°10'1515.0
2016-Jul-09 19:33N 36°07' E 014°54'1313.1
2016-Jul-09 18:33N 36°10' E 014°38'2 2.0
2016-Jul-09 17:33N 36°10' E 014°36'1514.9
2016-Jul-09 16:33N 36°18' E 014°20'1515.2
2016-Jul-09 15:33N 36°23' E 014°02'1515.2
2016-Jul-09 14:33N 36°29' E 013°45'1515.0
2016-Jul-09 13:33N 36°35' E 013°27'1515.2
2016-Jul-09 12:33N 36°41' E 013°10'1515.3
2016-Jul-09 11:34N 36°47' E 012°52'1614.7
2016-Jul-09 10:30N 36°52' E 012°34'1415.0
2016-Jul-09 09:33N 36°57' E 012°18'1514.7
2016-Jul-09 08:33N 37°04' E 012°02'1414.4
2016-Jul-09 07:34N 37°09' E 011°45'1615.1
2016-Jul-09 06:31N 37°15' E 011°27'2914.7
2016-Jul-09 04:33N 37°26' E 010°53'1514.8
2016-Jul-09 03:32N 37°30' E 010°34'1414.6
2016-Jul-09 02:33N 37°33' E 010°17'1514.9
2016-Jul-09 01:33N 37°33' E 009°58'1615.6
2016-Jul-09 00:33N 37°36' E 009°39'1615.8
2016-Jul-08 23:33N 37°40' E 009°19'3214.9
2016-Jul-08 21:22N 37°43' E 008°39'1614.1
2016-Jul-08 20:15N 37°42' E 008°19'7314.6
2016-Jul-08 15:14N 37°29' E 006°48'7713.5
2016-Jul-08 09:33N 37°18' E 005°12'1515.2
2016-Jul-08 08:33N 37°15' E 004°54'3014.9
2016-Jul-08 06:31N 37°11' E 004°16'4515.1
2016-Jul-08 03:33N 37°04' E 003°20'3315.3
2016-Jul-08 01:23N 36°58' E 002°39'1315.6
2016-Jul-08 00:32N 36°56' E 002°23'3015.1
2016-Jul-07 22:33N 36°51' E 001°46'1714.6
2016-Jul-07 21:23N 36°48' E 001°25'1714.1
2016-Jul-07 20:09N 36°45' E 001°04'914.2
2016-Jul-07 19:33N 36°45' E 000°53'1414.2
2016-Jul-07 18:33N 36°43' E 000°35'1414.0
2016-Jul-07 17:33N 36°41' E 000°18'1514.5
2016-Jul-07 16:32N 36°39' W 000°00'24214.8
2016-Jul-07 00:10N 36°02' W 004°57'1016.7
2016-Jul-06 23:33N 36°01' W 005°10'1717.0
2016-Jul-06 22:34N 35°57' W 005°30'1915.2
2016-Jul-06 21:18N 35°54' W 005°54'  
2016-Jul-04 08:33N 35°16' W 023°59'  
Track history (hours):
 
Tides and Currents Weather Stations Pressure Air Temp Water Temp Dewpoint Dewpoint Depression Visibility Wind Speed Wind Dir Waves Ship Positions

Black Eagle

Owner: Sealift Inc., Oyster Bay, NY. More information available from US FCC via Universal Licensing System and Coast Guard Vessel Documentation Center.

Last reported at 2016-Jul-13 04:27 UTC. Time now 2016-Jul-28 14:36 UTC.
Position N 31°03' E 032°19'.
Warning: this ship's position is 15 days out of date.

Length 190 m; draft 10 m.

Type: Military. MMSI: 369542000.

Date/timePositionNaut miles runAvg speedWind from/ knotsBaromVisibWave heightAir tempDewpointWater temp
2016-Jul-13 04:27N 31°03' E 032°19'7 8.0
2016-Jul-13 03:33N 31°10' E 032°20'9 8.6
2016-Jul-13 02:27N 31°19' E 032°22'5 5.9
2016-Jul-13 01:33N 31°24' E 032°21'4 3.7
2016-Jul-13 00:26N 31°26' E 032°16'1 0.6
2016-Jul-12 23:25N 31°26' E 032°15'2 2.9
2016-Jul-12 22:33N 31°24' E 032°13'2 1.9
2016-Jul-12 21:33N 31°26' E 032°13'1 1.2
2016-Jul-12 20:29N 31°26' E 032°15'1 1.3
2016-Jul-12 19:30N 31°25' E 032°16'4 4.0
2016-Jul-12 18:33N 31°24' E 032°20'2 1.6
2016-Jul-12 17:15N 31°21' E 032°20'0 0.0
2016-Jul-12 16:09N 31°21' E 032°20'0 0.0
2016-Jul-12 15:33N 31°21' E 032°20'0 0.0
2016-Jul-12 14:33N 31°21' E 032°20'0 0.0
2016-Jul-12 13:33N 31°21' E 032°20'0 0.0
2016-Jul-12 12:33N 31°21' E 032°20'0 0.1
2016-Jul-12 11:33N 31°22' E 032°20'7 6.8
2016-Jul-12 10:27N 31°28' E 032°16'910.6
2016-Jul-12 09:33N 31°35' E 032°08'7 6.8
2016-Jul-12 08:33N 31°40' E 032°03'1313.1
2016-Jul-12 07:33N 31°47' E 031°50'2115.2
2016-Jul-12 06:09N 31°52' E 031°25'2012.0
2016-Jul-12 04:27N 31°58' E 031°02'13414.7
2016-Jul-11 19:22N 32°35' E 028°30'61814.8
2016-Jul-10 01:33N 35°30' E 016°35'1615.2
2016-Jul-10 00:31N 35°35' E 016°17'1515.1
2016-Jul-09 23:33N 35°39' E 015°59'1515.3
2016-Jul-09 22:33N 35°44' E 015°42'1515.4
2016-Jul-09 21:33N 35°50' E 015°25'1515.2
2016-Jul-09 20:33N 35°60' E 015°10'1515.0
2016-Jul-09 19:33N 36°07' E 014°54'1313.1
2016-Jul-09 18:33N 36°10' E 014°38'2 2.0
2016-Jul-09 17:33N 36°10' E 014°36'1514.9
2016-Jul-09 16:33N 36°18' E 014°20'1515.2
2016-Jul-09 15:33N 36°23' E 014°02'1515.2
2016-Jul-09 14:33N 36°29' E 013°45'1515.0
2016-Jul-09 13:33N 36°35' E 013°27'1515.2
2016-Jul-09 12:33N 36°41' E 013°10'1515.3
2016-Jul-09 11:34N 36°47' E 012°52'1614.7
2016-Jul-09 10:30N 36°52' E 012°34'1415.0
2016-Jul-09 09:33N 36°57' E 012°18'1514.7
2016-Jul-09 08:33N 37°04' E 012°02'1414.4
2016-Jul-09 07:34N 37°09' E 011°45'1615.1
2016-Jul-09 06:31N 37°15' E 011°27'2914.7
2016-Jul-09 04:33N 37°26' E 010°53'1514.8
2016-Jul-09 03:32N 37°30' E 010°34'1414.6
2016-Jul-09 02:33N 37°33' E 010°17'1514.9
2016-Jul-09 01:33N 37°33' E 009°58'1615.6
2016-Jul-09 00:33N 37°36' E 009°39'1615.8
2016-Jul-08 23:33N 37°40' E 009°19'3214.9
2016-Jul-08 21:22N 37°43' E 008°39'1614.1
2016-Jul-08 20:15N 37°42' E 008°19'7314.6
2016-Jul-08 15:14N 37°29' E 006°48'7713.5
2016-Jul-08 09:33N 37°18' E 005°12'1515.2
2016-Jul-08 08:33N 37°15' E 004°54'3014.9
2016-Jul-08 06:31N 37°11' E 004°16'4515.1
2016-Jul-08 03:33N 37°04' E 003°20'3315.3
2016-Jul-08 01:23N 36°58' E 002°39'1315.6
2016-Jul-08 00:32N 36°56' E 002°23'3015.1
2016-Jul-07 22:33N 36°51' E 001°46'1714.6
2016-Jul-07 21:23N 36°48' E 001°25'1714.1
2016-Jul-07 20:09N 36°45' E 001°04'914.2
2016-Jul-07 19:33N 36°45' E 000°53'1414.2
2016-Jul-07 18:33N 36°43' E 000°35'1414.0
2016-Jul-07 17:33N 36°41' E 000°18'1514.5
2016-Jul-07 16:32N 36°39' W 000°00'24214.8
2016-Jul-07 00:10N 36°02' W 004°57'1016.7
2016-Jul-06 23:33N 36°01' W 005°10'1717.0
2016-Jul-06 22:34N 35°57' W 005°30'1915.2
2016-Jul-06 21:18N 35°54' W 005°54'  
2016-Jul-04 08:33N 35°16' W 023°59'  

Dump ship's entire track history